sensor_id;sensor_type;location;lat;lon;timestamp;pressure;altitude;pressure_sealevel;temperature;humidity
74327;BME280;62745;51.060;13.786;2023-03-03T00:00:53;100813.75;;;-0.52;99.24
74327;BME280;62745;51.060;13.786;2023-03-03T00:03:21;100843.97;;;0.03;96.71
74327;BME280;62745;51.060;13.786;2023-03-03T00:05:47;100808.66;;;-0.17;95.99
74327;BME280;62745;51.060;13.786;2023-03-03T00:08:12;100835.06;;;-0.07;96.23
74327;BME280;62745;51.060;13.786;2023-03-03T00:10:38;100840.91;;;0.09;95.91
74327;BME280;62745;51.060;13.786;2023-03-03T00:13:11;100845.81;;;0.14;96.02
74327;BME280;62745;51.060;13.786;2023-03-03T00:15:37;100826.47;;;-0.09;96.14
74327;BME280;62745;51.060;13.786;2023-03-03T00:18:12;100838.34;;;0.20;95.89
74327;BME280;62745;51.060;13.786;2023-03-03T00:20:48;100848.63;;;0.23;95.61
74327;BME280;62745;51.060;13.786;2023-03-03T00:23:40;100847.34;;;0.05;96.38
74327;BME280;62745;51.060;13.786;2023-03-03T00:26:20;100823.16;;;-0.24;97.88
74327;BME280;62745;51.060;13.786;2023-03-03T00:28:48;100856.38;;;0.01;97.90
74327;BME280;62745;51.060;13.786;2023-03-03T00:31:18;100859.53;;;0.30;96.02
74327;BME280;62745;51.060;13.786;2023-03-03T00:33:53;100855.19;;;0.18;96.15
74327;BME280;62745;51.060;13.786;2023-03-03T00:36:38;100846.16;;;0.33;95.58
74327;BME280;62745;51.060;13.786;2023-03-03T00:41:44;100852.09;;;0.24;96.05
74327;BME280;62745;51.060;13.786;2023-03-03T00:46:53;100852.59;;;0.53;94.97
74327;BME280;62745;51.060;13.786;2023-03-03T00:49:24;100860.09;;;0.46;95.03
74327;BME280;62745;51.060;13.786;2023-03-03T00:51:52;100850.91;;;0.28;94.75
74327;BME280;62745;51.060;13.786;2023-03-03T00:54:18;100854.69;;;0.37;94.35
74327;BME280;62745;51.060;13.786;2023-03-03T00:56:43;100836.97;;;0.15;94.96
74327;BME280;62745;51.060;13.786;2023-03-03T00:59:08;100847.19;;;0.19;94.97
74327;BME280;62745;51.060;13.786;2023-03-03T01:01:33;100855.22;;;0.05;95.03
74327;BME280;62745;51.060;13.786;2023-03-03T01:03:59;100839.59;;;-0.09;95.00
74327;BME280;62745;51.060;13.786;2023-03-03T01:06:24;100851.56;;;-0.05;95.00
74327;BME280;62745;51.060;13.786;2023-03-03T01:08:49;100849.38;;;-0.11;95.60
74327;BME280;62745;51.060;13.786;2023-03-03T01:11:19;100852.81;;;0.02;95.66
74327;BME280;62745;51.060;13.786;2023-03-03T01:13:46;100860.75;;;0.13;94.88
74327;BME280;62745;51.060;13.786;2023-03-03T01:16:12;100854.41;;;0.16;94.77
74327;BME280;62745;51.060;13.786;2023-03-03T01:18:38;100854.72;;;0.00;94.99
74327;BME280;62745;51.060;13.786;2023-03-03T01:21:05;100876.72;;;0.10;95.79
74327;BME280;62745;51.060;13.786;2023-03-03T01:23:31;100863.44;;;-0.12;95.98
74327;BME280;62745;51.060;13.786;2023-03-03T01:25:56;100851.63;;;0.06;95.56
74327;BME280;62745;51.060;13.786;2023-03-03T01:28:21;100871.03;;;0.16;95.25
74327;BME280;62745;51.060;13.786;2023-03-03T01:30:47;100854.91;;;-0.03;95.34
74327;BME280;62745;51.060;13.786;2023-03-03T01:33:12;100859.84;;;-0.48;97.05
74327;BME280;62745;51.060;13.786;2023-03-03T01:35:43;100855.59;;;-0.38;97.18
74327;BME280;62745;51.060;13.786;2023-03-03T01:38:08;100841.97;;;-0.43;96.58
74327;BME280;62745;51.060;13.786;2023-03-03T01:40:33;100844.16;;;-0.37;96.02
74327;BME280;62745;51.060;13.786;2023-03-03T01:42:59;100869.13;;;-0.18;95.80
74327;BME280;62745;51.060;13.786;2023-03-03T01:45:27;100869.72;;;-0.02;95.00
74327;BME280;62745;51.060;13.786;2023-03-03T01:48:00;100864.31;;;-0.37;95.36
74327;BME280;62745;51.060;13.786;2023-03-03T01:50:41;100871.97;;;-0.34;95.71
74327;BME280;62745;51.060;13.786;2023-03-03T01:53:19;100859.06;;;-0.24;95.83
74327;BME280;62745;51.060;13.786;2023-03-03T01:55:47;100858.78;;;0.04;94.91
74327;BME280;62745;51.060;13.786;2023-03-03T01:58:18;100855.16;;;-0.19;94.89
74327;BME280;62745;51.060;13.786;2023-03-03T02:00:52;100853.97;;;-0.02;94.40
74327;BME280;62745;51.060;13.786;2023-03-03T02:03:20;100843.84;;;0.17;93.11
74327;BME280;62745;51.060;13.786;2023-03-03T02:05:47;100847.00;;;0.10;93.08
74327;BME280;62745;51.060;13.786;2023-03-03T02:08:15;100847.56;;;0.26;91.93
74327;BME280;62745;51.060;13.786;2023-03-03T02:10:44;100851.97;;;0.49;91.39
74327;BME280;62745;51.060;13.786;2023-03-03T02:13:10;100854.84;;;0.22;91.35
74327;BME280;62745;51.060;13.786;2023-03-03T02:15:36;100856.84;;;0.19;92.14
74327;BME280;62745;51.060;13.786;2023-03-03T02:18:07;100854.16;;;-0.54;96.92
74327;BME280;62745;51.060;13.786;2023-03-03T02:20:51;100855.81;;;-0.41;98.31
74327;BME280;62745;51.060;13.786;2023-03-03T02:26:23;100862.75;;;-0.52;98.18
74327;BME280;62745;51.060;13.786;2023-03-03T02:28:49;100856.78;;;-0.93;99.61
74327;BME280;62745;51.060;13.786;2023-03-03T02:31:19;100860.66;;;-0.85;100.00
74327;BME280;62745;51.060;13.786;2023-03-03T02:33:49;100860.13;;;-0.91;99.66
74327;BME280;62745;51.060;13.786;2023-03-03T02:36:18;100852.38;;;-1.17;100.00
74327;BME280;62745;51.060;13.786;2023-03-03T02:46:35;100843.72;;;-1.19;100.00
74327;BME280;62745;51.060;13.786;2023-03-03T02:49:01;100862.63;;;-1.14;100.00
74327;BME280;62745;51.060;13.786;2023-03-03T02:51:27;100866.84;;;-1.12;100.00
74327;BME280;62745;51.060;13.786;2023-03-03T02:53:52;100859.97;;;-1.27;100.00
74327;BME280;62745;51.060;13.786;2023-03-03T02:56:17;100854.97;;;-1.17;100.00
74327;BME280;62745;51.060;13.786;2023-03-03T02:58:43;100860.31;;;-1.19;100.00
74327;BME280;62745;51.060;13.786;2023-03-03T03:01:08;100858.03;;;-1.11;100.00
74327;BME280;62745;51.060;13.786;2023-03-03T03:03:33;100862.25;;;-0.96;100.00
74327;BME280;62745;51.060;13.786;2023-03-03T03:05:58;100870.41;;;-1.13;100.00
74327;BME280;62745;51.060;13.786;2023-03-03T03:08:24;100864.38;;;-1.28;100.00
74327;BME280;62745;51.060;13.786;2023-03-03T03:10:49;100866.84;;;-0.86;99.92
74327;BME280;62745;51.060;13.786;2023-03-03T03:13:15;100869.59;;;-0.63;98.73
74327;BME280;62745;51.060;13.786;2023-03-03T03:15:40;100866.97;;;-0.50;97.78
74327;BME280;62745;51.060;13.786;2023-03-03T03:18:05;100870.44;;;-0.62;96.08
74327;BME280;62745;51.060;13.786;2023-03-03T03:20:35;100872.53;;;-0.54;95.06
74327;BME280;62745;51.060;13.786;2023-03-03T03:23:00;100875.56;;;-0.99;97.43
74327;BME280;62745;51.060;13.786;2023-03-03T03:25:26;100880.28;;;-1.43;100.00
74327;BME280;62745;51.060;13.786;2023-03-03T03:27:51;100880.59;;;-1.48;100.00
74327;BME280;62745;51.060;13.786;2023-03-03T03:30:16;100884.56;;;-1.42;100.00
74327;BME280;62745;51.060;13.786;2023-03-03T03:32:44;100891.28;;;-1.38;100.00
74327;BME280;62745;51.060;13.786;2023-03-03T03:35:09;100879.00;;;-1.50;100.00
74327;BME280;62745;51.060;13.786;2023-03-03T03:37:35;100883.34;;;-1.64;100.00
74327;BME280;62745;51.060;13.786;2023-03-03T03:40:00;100877.22;;;-1.77;100.00
74327;BME280;62745;51.060;13.786;2023-03-03T03:42:26;100880.75;;;-1.78;100.00
74327;BME280;62745;51.060;13.786;2023-03-03T03:44:51;100861.06;;;-1.84;100.00
74327;BME280;62745;51.060;13.786;2023-03-03T03:47:16;100861.91;;;-1.83;100.00
74327;BME280;62745;51.060;13.786;2023-03-03T03:49:41;100873.31;;;-1.57;100.00
74327;BME280;62745;51.060;13.786;2023-03-03T03:52:07;100876.47;;;-1.52;100.00
74327;BME280;62745;51.060;13.786;2023-03-03T03:54:32;100882.16;;;-1.45;100.00
74327;BME280;62745;51.060;13.786;2023-03-03T03:56:57;100874.56;;;-1.63;100.00
74327;BME280;62745;51.060;13.786;2023-03-03T03:59:22;100889.63;;;-1.66;100.00
74327;BME280;62745;51.060;13.786;2023-03-03T04:01:47;100899.28;;;-1.27;100.00
74327;BME280;62745;51.060;13.786;2023-03-03T04:04:14;100886.38;;;-0.78;99.23
74327;BME280;62745;51.060;13.786;2023-03-03T04:06:39;100880.00;;;-0.61;96.00
74327;BME280;62745;51.060;13.786;2023-03-03T04:09:04;100890.91;;;-0.54;94.61
74327;BME280;62745;51.060;13.786;2023-03-03T04:11:30;100887.00;;;-0.87;97.28
74327;BME280;62745;51.060;13.786;2023-03-03T04:13:55;100896.81;;;-1.03;98.93
74327;BME280;62745;51.060;13.786;2023-03-03T04:16:21;100904.44;;;-1.26;99.19
74327;BME280;62745;51.060;13.786;2023-03-03T04:18:46;100894.84;;;-1.12;99.86
74327;BME280;62745;51.060;13.786;2023-03-03T04:21:13;100907.22;;;-1.02;100.00
74327;BME280;62745;51.060;13.786;2023-03-03T04:23:39;100904.44;;;-1.26;99.82
74327;BME280;62745;51.060;13.786;2023-03-03T04:26:04;100900.53;;;-1.60;100.00
74327;BME280;62745;51.060;13.786;2023-03-03T04:28:30;100910.63;;;-1.54;100.00
74327;BME280;62745;51.060;13.786;2023-03-03T04:30:55;100916.91;;;-1.29;100.00
74327;BME280;62745;51.060;13.786;2023-03-03T04:33:20;100913.59;;;-1.45;100.00
74327;BME280;62745;51.060;13.786;2023-03-03T04:35:45;100910.63;;;-1.27;100.00
74327;BME280;62745;51.060;13.786;2023-03-03T04:38:11;100908.00;;;-1.54;100.00
74327;BME280;62745;51.060;13.786;2023-03-03T04:40:39;100911.75;;;-1.58;100.00
74327;BME280;62745;51.060;13.786;2023-03-03T04:43:04;100919.41;;;-1.55;100.00
74327;BME280;62745;51.060;13.786;2023-03-03T04:45:30;100919.50;;;-1.56;100.00
74327;BME280;62745;51.060;13.786;2023-03-03T04:47:55;100924.97;;;-1.59;100.00
74327;BME280;62745;51.060;13.786;2023-03-03T04:50:20;100925.59;;;-1.56;100.00
74327;BME280;62745;51.060;13.786;2023-03-03T04:52:45;100923.06;;;-1.57;100.00
74327;BME280;62745;51.060;13.786;2023-03-03T04:55:11;100915.06;;;-1.41;100.00
74327;BME280;62745;51.060;13.786;2023-03-03T04:57:36;100917.72;;;-1.56;100.00
74327;BME280;62745;51.060;13.786;2023-03-03T05:00:02;100917.22;;;-1.21;100.00
74327;BME280;62745;51.060;13.786;2023-03-03T05:02:28;100914.81;;;-1.24;100.00
74327;BME280;62745;51.060;13.786;2023-03-03T05:04:54;100918.13;;;-1.35;99.73
74327;BME280;62745;51.060;13.786;2023-03-03T05:07:19;100919.41;;;-1.01;99.00
74327;BME280;62745;51.060;13.786;2023-03-03T05:09:44;100923.31;;;-0.81;98.41
74327;BME280;62745;51.060;13.786;2023-03-03T05:12:10;100931.69;;;-1.28;99.54
74327;BME280;62745;51.060;13.786;2023-03-03T05:14:35;100926.78;;;-1.20;99.59
74327;BME280;62745;51.060;13.786;2023-03-03T05:17:02;100925.16;;;-1.35;99.66
74327;BME280;62745;51.060;13.786;2023-03-03T05:19:27;100922.41;;;-1.07;99.99
74327;BME280;62745;51.060;13.786;2023-03-03T05:21:52;100918.38;;;-1.25;99.71
74327;BME280;62745;51.060;13.786;2023-03-03T05:24:19;100899.97;;;-1.11;99.67
74327;BME280;62745;51.060;13.786;2023-03-03T05:26:44;100909.13;;;-0.91;99.17
74327;BME280;62745;51.060;13.786;2023-03-03T05:29:09;100911.81;;;-1.05;99.15
74327;BME280;62745;51.060;13.786;2023-03-03T05:31:35;100921.00;;;-0.35;96.68
74327;BME280;62745;51.060;13.786;2023-03-03T05:34:00;100922.25;;;-0.02;94.92
74327;BME280;62745;51.060;13.786;2023-03-03T05:36:26;100912.03;;;0.19;93.10
74327;BME280;62745;51.060;13.786;2023-03-03T05:38:51;100900.34;;;-0.39;94.57
74327;BME280;62745;51.060;13.786;2023-03-03T05:41:17;100905.06;;;-0.82;96.84
74327;BME280;62745;51.060;13.786;2023-03-03T05:43:42;100923.94;;;-0.52;97.19
74327;BME280;62745;51.060;13.786;2023-03-03T05:46:09;100925.84;;;-0.16;96.04
74327;BME280;62745;51.060;13.786;2023-03-03T05:48:34;100922.28;;;-0.27;94.75
74327;BME280;62745;51.060;13.786;2023-03-03T05:51:00;100929.44;;;-0.17;95.61
74327;BME280;62745;51.060;13.786;2023-03-03T05:53:26;100926.25;;;-0.09;94.24
74327;BME280;62745;51.060;13.786;2023-03-03T05:55:52;100923.47;;;0.18;94.02
74327;BME280;62745;51.060;13.786;2023-03-03T05:58:17;100925.53;;;0.25;92.90
74327;BME280;62745;51.060;13.786;2023-03-03T06:00:42;100919.72;;;0.09;93.84
74327;BME280;62745;51.060;13.786;2023-03-03T06:03:08;100922.44;;;0.08;94.29
74327;BME280;62745;51.060;13.786;2023-03-03T06:05:33;100922.03;;;0.01;95.18
74327;BME280;62745;51.060;13.786;2023-03-03T06:07:58;100922.56;;;0.06;95.13
74327;BME280;62745;51.060;13.786;2023-03-03T06:10:24;100913.34;;;-0.25;95.38
74327;BME280;62745;51.060;13.786;2023-03-03T06:12:49;100910.28;;;-0.06;95.22
74327;BME280;62745;51.060;13.786;2023-03-03T06:15:14;100907.38;;;0.22;95.03
74327;BME280;62745;51.060;13.786;2023-03-03T06:17:40;100910.28;;;0.30;96.46
74327;BME280;62745;51.060;13.786;2023-03-03T06:20:06;100905.38;;;0.50;94.55
74327;BME280;62745;51.060;13.786;2023-03-03T06:22:31;100917.88;;;0.22;94.00
74327;BME280;62745;51.060;13.786;2023-03-03T06:24:56;100913.22;;;0.63;94.95
74327;BME280;62745;51.060;13.786;2023-03-03T06:27:22;100922.06;;;0.85;92.29
74327;BME280;62745;51.060;13.786;2023-03-03T06:29:47;100919.56;;;0.95;92.62
74327;BME280;62745;51.060;13.786;2023-03-03T06:32:12;100924.16;;;0.33;93.33
74327;BME280;62745;51.060;13.786;2023-03-03T06:34:38;100928.78;;;0.89;93.79
74327;BME280;62745;51.060;13.786;2023-03-03T06:37:03;100926.50;;;0.48;93.05
74327;BME280;62745;51.060;13.786;2023-03-03T06:39:28;100953.78;;;0.71;93.23
74327;BME280;62745;51.060;13.786;2023-03-03T06:41:54;100957.44;;;1.16;93.78
74327;BME280;62745;51.060;13.786;2023-03-03T06:44:19;100955.63;;;1.17;91.22
74327;BME280;62745;51.060;13.786;2023-03-03T06:46:44;100953.94;;;0.81;90.65
74327;BME280;62745;51.060;13.786;2023-03-03T06:49:10;100955.41;;;0.85;92.49
74327;BME280;62745;51.060;13.786;2023-03-03T06:51:37;100948.38;;;0.85;91.86
74327;BME280;62745;51.060;13.786;2023-03-03T06:54:33;100950.59;;;0.79;91.19
74327;BME280;62745;51.060;13.786;2023-03-03T06:57:00;100949.50;;;0.81;91.41
74327;BME280;62745;51.060;13.786;2023-03-03T06:59:28;100952.84;;;0.72;91.11
74327;BME280;62745;51.060;13.786;2023-03-03T07:01:53;100956.19;;;0.74;91.79
74327;BME280;62745;51.060;13.786;2023-03-03T07:04:27;100952.78;;;0.85;91.75
74327;BME280;62745;51.060;13.786;2023-03-03T07:06:54;100959.78;;;0.73;91.16
74327;BME280;62745;51.060;13.786;2023-03-03T07:09:25;100972.56;;;0.78;91.30
74327;BME280;62745;51.060;13.786;2023-03-03T07:11:54;100969.31;;;1.22;90.63
74327;BME280;62745;51.060;13.786;2023-03-03T07:14:21;100961.16;;;1.60;89.08
74327;BME280;62745;51.060;13.786;2023-03-03T07:16:51;100959.72;;;1.56;86.54
74327;BME280;62745;51.060;13.786;2023-03-03T07:19:25;100959.63;;;1.34;87.90
74327;BME280;62745;51.060;13.786;2023-03-03T07:21:54;100944.13;;;1.07;89.03
74327;BME280;62745;51.060;13.786;2023-03-03T07:24:26;100958.81;;;1.33;89.06
74327;BME280;62745;51.060;13.786;2023-03-03T07:26:55;100961.66;;;1.76;88.75
74327;BME280;62745;51.060;13.786;2023-03-03T07:29:28;100981.66;;;1.33;88.26
74327;BME280;62745;51.060;13.786;2023-03-03T07:31:56;100977.22;;;0.98;88.48
74327;BME280;62745;51.060;13.786;2023-03-03T07:34:29;100985.78;;;1.13;88.71
74327;BME280;62745;51.060;13.786;2023-03-03T07:37:01;100983.84;;;1.04;88.65
74327;BME280;62745;51.060;13.786;2023-03-03T07:39:34;100986.97;;;0.85;89.86
74327;BME280;62745;51.060;13.786;2023-03-03T07:42:25;100995.03;;;0.71;91.00
74327;BME280;62745;51.060;13.786;2023-03-03T07:44:57;101002.97;;;1.06;90.33
74327;BME280;62745;51.060;13.786;2023-03-03T07:47:25;100991.09;;;1.00;90.05
74327;BME280;62745;51.060;13.786;2023-03-03T07:49:54;100993.66;;;1.37;88.70
74327;BME280;62745;51.060;13.786;2023-03-03T07:52:24;101002.03;;;1.07;89.31
74327;BME280;62745;51.060;13.786;2023-03-03T07:54:51;100998.03;;;1.71;89.43
74327;BME280;62745;51.060;13.786;2023-03-03T07:57:30;100996.47;;;1.58;87.51
74327;BME280;62745;51.060;13.786;2023-03-03T08:00:01;100991.81;;;1.26;87.97
74327;BME280;62745;51.060;13.786;2023-03-03T08:02:56;101000.59;;;1.14;88.92
74327;BME280;62745;51.060;13.786;2023-03-03T08:05:37;100994.06;;;0.72;90.98
74327;BME280;62745;51.060;13.786;2023-03-03T08:10:49;100989.50;;;1.57;88.41
74327;BME280;62745;51.060;13.786;2023-03-03T08:13:25;100986.59;;;1.48;87.16
74327;BME280;62745;51.060;13.786;2023-03-03T08:18:48;101000.72;;;1.36;88.41
74327;BME280;62745;51.060;13.786;2023-03-03T08:21:17;100990.31;;;2.03;86.38
74327;BME280;62745;51.060;13.786;2023-03-03T08:23:43;100988.56;;;1.58;85.47
74327;BME280;62745;51.060;13.786;2023-03-03T08:26:09;100981.19;;;2.07;85.69
74327;BME280;62745;51.060;13.786;2023-03-03T08:28:36;100988.59;;;1.69;86.01
74327;BME280;62745;51.060;13.786;2023-03-03T08:31:02;100994.50;;;2.06;85.55
74327;BME280;62745;51.060;13.786;2023-03-03T08:33:27;100996.38;;;1.70;84.71
74327;BME280;62745;51.060;13.786;2023-03-03T08:35:52;100999.81;;;1.60;86.12
74327;BME280;62745;51.060;13.786;2023-03-03T08:38:19;101003.91;;;1.75;86.15
74327;BME280;62745;51.060;13.786;2023-03-03T08:40:45;101003.09;;;1.86;85.15
74327;BME280;62745;51.060;13.786;2023-03-03T08:43:11;101004.34;;;1.58;86.33
74327;BME280;62745;51.060;13.786;2023-03-03T08:45:44;101003.28;;;1.60;86.80
74327;BME280;62745;51.060;13.786;2023-03-03T08:48:10;101006.16;;;1.57;87.49
74327;BME280;62745;51.060;13.786;2023-03-03T08:50:35;101014.69;;;1.83;85.89
74327;BME280;62745;51.060;13.786;2023-03-03T08:53:02;101007.75;;;1.71;85.14
74327;BME280;62745;51.060;13.786;2023-03-03T08:55:28;101007.41;;;1.98;85.65
74327;BME280;62745;51.060;13.786;2023-03-03T08:57:53;101005.63;;;2.09;83.43
74327;BME280;62745;51.060;13.786;2023-03-03T09:00:19;100999.50;;;1.98;85.43
74327;BME280;62745;51.060;13.786;2023-03-03T09:02:44;101002.03;;;1.88;85.85
74327;BME280;62745;51.060;13.786;2023-03-03T09:05:10;101003.44;;;1.70;86.92
74327;BME280;62745;51.060;13.786;2023-03-03T09:07:37;101008.44;;;1.62;87.42
74327;BME280;62745;51.060;13.786;2023-03-03T09:10:03;101017.63;;;1.56;87.49
74327;BME280;62745;51.060;13.786;2023-03-03T09:12:33;101015.03;;;1.78;86.79
74327;BME280;62745;51.060;13.786;2023-03-03T09:15:09;101012.41;;;1.78;86.16
74327;BME280;62745;51.060;13.786;2023-03-03T09:17:36;101016.16;;;1.17;88.58
74327;BME280;62745;51.060;13.786;2023-03-03T09:20:20;101013.13;;;1.80;86.16
74327;BME280;62745;51.060;13.786;2023-03-03T09:22:47;101021.88;;;1.35;88.04
74327;BME280;62745;51.060;13.786;2023-03-03T09:25:35;101027.88;;;1.37;87.29
74327;BME280;62745;51.060;13.786;2023-03-03T09:28:02;101022.91;;;2.25;84.21
74327;BME280;62745;51.060;13.786;2023-03-03T09:30:35;101032.59;;;1.56;86.58
74327;BME280;62745;51.060;13.786;2023-03-03T09:33:01;101027.03;;;1.36;86.11
74327;BME280;62745;51.060;13.786;2023-03-03T09:35:41;101035.09;;;1.22;87.50
74327;BME280;62745;51.060;13.786;2023-03-03T09:38:29;101041.38;;;1.08;87.84
74327;BME280;62745;51.060;13.786;2023-03-03T09:47:24;101048.38;;;1.20;87.52
74327;BME280;62745;51.060;13.786;2023-03-03T09:50:29;101047.91;;;0.04;91.67
74327;BME280;62745;51.060;13.786;2023-03-03T09:53:18;101059.53;;;0.13;92.45
74327;BME280;62745;51.060;13.786;2023-03-03T09:55:58;101056.19;;;0.11;92.33
74327;BME280;62745;51.060;13.786;2023-03-03T10:01:32;101062.41;;;0.22;92.98
74327;BME280;62745;51.060;13.786;2023-03-03T10:09:52;101049.63;;;0.54;91.02
74327;BME280;62745;51.060;13.786;2023-03-03T10:12:27;101051.97;;;0.34;91.96
74327;BME280;62745;51.060;13.786;2023-03-03T10:17:48;101067.09;;;-0.21;93.27
74327;BME280;62745;51.060;13.786;2023-03-03T10:23:26;101065.59;;;0.64;90.24
74327;BME280;62745;51.060;13.786;2023-03-03T10:28:52;101057.09;;;0.97;88.03
74327;BME280;62745;51.060;13.786;2023-03-03T10:31:44;101051.13;;;1.19;86.63
74327;BME280;62745;51.060;13.786;2023-03-03T10:34:44;101064.31;;;1.06;86.92
74327;BME280;62745;51.060;13.786;2023-03-03T10:48:37;101064.97;;;0.97;89.13
74327;BME280;62745;51.060;13.786;2023-03-03T10:51:26;101065.53;;;1.13;88.08
74327;BME280;62745;51.060;13.786;2023-03-03T10:54:17;101059.31;;;1.14;87.45
74327;BME280;62745;51.060;13.786;2023-03-03T10:56:52;101057.81;;;1.47;86.83
74327;BME280;62745;51.060;13.786;2023-03-03T10:59:42;101062.38;;;1.21;87.51
74327;BME280;62745;51.060;13.786;2023-03-03T11:02:19;101056.44;;;1.06;87.74
74327;BME280;62745;51.060;13.786;2023-03-03T11:10:13;101061.16;;;1.49;85.31
74327;BME280;62745;51.060;13.786;2023-03-03T11:16:03;101065.53;;;0.89;86.88
74327;BME280;62745;51.060;13.786;2023-03-03T11:18:55;101060.50;;;1.10;86.75
74327;BME280;62745;51.060;13.786;2023-03-03T11:21:40;101055.75;;;1.15;86.17
74327;BME280;62745;51.060;13.786;2023-03-03T11:24:22;101055.75;;;1.15;86.67
74327;BME280;62745;51.060;13.786;2023-03-03T11:27:02;101047.97;;;0.53;88.67
74327;BME280;62745;51.060;13.786;2023-03-03T11:29:52;101056.63;;;0.67;89.34
74327;BME280;62745;51.060;13.786;2023-03-03T11:32:26;101049.41;;;0.94;87.94
74327;BME280;62745;51.060;13.786;2023-03-03T11:35:25;101045.56;;;0.87;87.91
74327;BME280;62745;51.060;13.786;2023-03-03T11:38:04;101039.69;;;1.07;87.77
74327;BME280;62745;51.060;13.786;2023-03-03T11:40:48;101044.56;;;1.25;86.73
74327;BME280;62745;51.060;13.786;2023-03-03T11:43:48;101038.75;;;1.08;86.59
74327;BME280;62745;51.060;13.786;2023-03-03T11:46:21;101043.59;;;0.65;88.18
74327;BME280;62745;51.060;13.786;2023-03-03T11:49:14;101041.72;;;1.04;88.21
74327;BME280;62745;51.060;13.786;2023-03-03T11:51:52;101041.97;;;1.12;87.24
74327;BME280;62745;51.060;13.786;2023-03-03T11:54:23;101041.03;;;1.37;86.46
74327;BME280;62745;51.060;13.786;2023-03-03T11:56:58;101046.63;;;0.35;89.66
74327;BME280;62745;51.060;13.786;2023-03-03T12:02:33;101047.47;;;0.36;89.84
74327;BME280;62745;51.060;13.786;2023-03-03T12:05:56;101038.19;;;0.30;91.03
74327;BME280;62745;51.060;13.786;2023-03-03T12:08:18;101033.56;;;0.46;90.94
74327;BME280;62745;51.060;13.786;2023-03-03T12:11:56;101039.72;;;0.95;89.02
74327;BME280;62745;51.060;13.786;2023-03-03T12:14:03;101038.44;;;0.76;88.08
74327;BME280;62745;51.060;13.786;2023-03-03T12:16:58;101035.34;;;0.46;89.88
74327;BME280;62745;51.060;13.786;2023-03-03T12:19:38;101039.03;;;0.80;88.71
74327;BME280;62745;51.060;13.786;2023-03-03T12:25:07;101016.16;;;0.69;88.46
74327;BME280;62745;51.060;13.786;2023-03-03T12:39:42;101017.69;;;1.08;85.78
74327;BME280;62745;51.060;13.786;2023-03-03T12:42:23;101011.63;;;0.71;86.90
74327;BME280;62745;51.060;13.786;2023-03-03T12:47:50;101004.28;;;0.64;86.42
74327;BME280;62745;51.060;13.786;2023-03-03T12:50:53;100994.50;;;0.66;86.44
74327;BME280;62745;51.060;13.786;2023-03-03T12:54:03;100990.78;;;1.05;85.57
74327;BME280;62745;51.060;13.786;2023-03-03T12:56:37;100993.22;;;0.71;85.55
74327;BME280;62745;51.060;13.786;2023-03-03T12:59:19;100996.69;;;0.72;85.46
74327;BME280;62745;51.060;13.786;2023-03-03T13:04:43;100998.69;;;1.16;86.00
74327;BME280;62745;51.060;13.786;2023-03-03T13:07:16;100989.44;;;1.34;83.85
74327;BME280;62745;51.060;13.786;2023-03-03T13:10:06;100991.88;;;1.48;82.73
74327;BME280;62745;51.060;13.786;2023-03-03T13:12:34;100995.28;;;1.27;82.93
74327;BME280;62745;51.060;13.786;2023-03-03T13:15:14;100996.59;;;1.21;83.33
74327;BME280;62745;51.060;13.786;2023-03-03T13:18:09;100996.69;;;1.19;84.32
74327;BME280;62745;51.060;13.786;2023-03-03T13:21:20;100997.44;;;1.79;82.72
74327;BME280;62745;51.060;13.786;2023-03-03T13:32:19;100992.63;;;0.68;87.38
74327;BME280;62745;51.060;13.786;2023-03-03T13:34:58;100981.72;;;0.85;87.29
74327;BME280;62745;51.060;13.786;2023-03-03T13:37:31;100987.09;;;0.47;87.33
74327;BME280;62745;51.060;13.786;2023-03-03T13:42:40;100983.97;;;0.66;87.36
74327;BME280;62745;51.060;13.786;2023-03-03T13:45:35;100990.63;;;0.58;87.90
74327;BME280;62745;51.060;13.786;2023-03-03T13:53:38;100976.97;;;1.25;84.26
74327;BME280;62745;51.060;13.786;2023-03-03T13:56:13;100976.53;;;1.42;84.41
74327;BME280;62745;51.060;13.786;2023-03-03T13:58:56;100966.00;;;1.42;84.00
74327;BME280;62745;51.060;13.786;2023-03-03T14:05:08;100960.63;;;1.44;84.55
74327;BME280;62745;51.060;13.786;2023-03-03T14:07:20;100964.97;;;1.56;82.95
74327;BME280;62745;51.060;13.786;2023-03-03T14:12:43;100965.78;;;0.63;85.59
74327;BME280;62745;51.060;13.786;2023-03-03T14:15:28;100963.50;;;0.58;85.83
74327;BME280;62745;51.060;13.786;2023-03-03T14:18:04;100959.50;;;0.89;84.86
74327;BME280;62745;51.060;13.786;2023-03-03T14:20:48;100941.41;;;0.60;85.77
74327;BME280;62745;51.060;13.786;2023-03-03T14:23:19;100948.22;;;0.63;85.95
74327;BME280;62745;51.060;13.786;2023-03-03T14:26:04;100950.88;;;1.22;83.50
74327;BME280;62745;51.060;13.786;2023-03-03T14:28:40;100949.94;;;1.34;83.81
74327;BME280;62745;51.060;13.786;2023-03-03T14:31:21;100947.25;;;1.12;82.77
74327;BME280;62745;51.060;13.786;2023-03-03T14:36:37;100948.22;;;1.11;83.79
74327;BME280;62745;51.060;13.786;2023-03-03T14:41:51;100944.81;;;1.33;83.01
74327;BME280;62745;51.060;13.786;2023-03-03T14:49:35;100940.53;;;0.73;85.08
74327;BME280;62745;51.060;13.786;2023-03-03T14:52:24;100939.28;;;0.66;85.56
74327;BME280;62745;51.060;13.786;2023-03-03T14:54:52;100932.06;;;0.56;85.40
74327;BME280;62745;51.060;13.786;2023-03-03T14:57:22;100932.16;;;0.68;85.71
74327;BME280;62745;51.060;13.786;2023-03-03T15:02:40;100933.13;;;0.78;85.45
74327;BME280;62745;51.060;13.786;2023-03-03T15:05:35;100931.78;;;0.96;85.04
74327;BME280;62745;51.060;13.786;2023-03-03T15:13:23;100936.63;;;1.13;84.59
74327;BME280;62745;51.060;13.786;2023-03-03T15:18:29;100934.81;;;0.79;84.74
74327;BME280;62745;51.060;13.786;2023-03-03T15:21:03;100935.28;;;0.73;84.96